sensor_id;sensor_type;location;lat;lon;timestamp;P1;durP1;ratioP1;P2;durP2;ratioP2
76640;SDS011;65538;50.798;6.064;2023-12-22T00:02:19;13.07;;;3.05;;
76640;SDS011;65538;50.798;6.064;2023-12-22T00:04:45;14.40;;;3.15;;
76640;SDS011;65538;50.798;6.064;2023-12-22T00:07:10;15.10;;;2.47;;
76640;SDS011;65538;50.798;6.064;2023-12-22T00:09:35;12.13;;;2.53;;
76640;SDS011;65538;50.798;6.064;2023-12-22T00:12:00;17.23;;;2.77;;
76640;SDS011;65538;50.798;6.064;2023-12-22T00:14:26;12.60;;;2.30;;
76640;SDS011;65538;50.798;6.064;2023-12-22T00:16:51;10.37;;;2.27;;
76640;SDS011;65538;50.798;6.064;2023-12-22T00:19:16;13.53;;;2.70;;
76640;SDS011;65538;50.798;6.064;2023-12-22T00:21:41;10.83;;;2.20;;
76640;SDS011;65538;50.798;6.064;2023-12-22T00:24:06;20.93;;;2.97;;
76640;SDS011;65538;50.798;6.064;2023-12-22T00:26:32;11.37;;;2.60;;
76640;SDS011;65538;50.798;6.064;2023-12-22T00:28:57;12.20;;;2.20;;
76640;SDS011;65538;50.798;6.064;2023-12-22T00:31:22;14.20;;;2.80;;
76640;SDS011;65538;50.798;6.064;2023-12-22T00:33:47;6.50;;;2.10;;
76640;SDS011;65538;50.798;6.064;2023-12-22T00:36:12;9.43;;;1.57;;
76640;SDS011;65538;50.798;6.064;2023-12-22T00:38:38;11.63;;;1.90;;
76640;SDS011;65538;50.798;6.064;2023-12-22T00:41:03;12.00;;;1.97;;
76640;SDS011;65538;50.798;6.064;2023-12-22T00:43:28;14.47;;;2.07;;
76640;SDS011;65538;50.798;6.064;2023-12-22T00:45:53;12.27;;;2.00;;
76640;SDS011;65538;50.798;6.064;2023-12-22T00:48:19;10.80;;;1.70;;
76640;SDS011;65538;50.798;6.064;2023-12-22T00:50:44;11.83;;;2.27;;
76640;SDS011;65538;50.798;6.064;2023-12-22T00:53:09;8.13;;;1.90;;
76640;SDS011;65538;50.798;6.064;2023-12-22T00:55:35;7.80;;;1.63;;
76640;SDS011;65538;50.798;6.064;2023-12-22T00:58:00;9.70;;;2.50;;
76640;SDS011;65538;50.798;6.064;2023-12-22T01:00:25;16.37;;;2.83;;
76640;SDS011;65538;50.798;6.064;2023-12-22T01:02:50;13.80;;;2.27;;
76640;SDS011;65538;50.798;6.064;2023-12-22T01:05:15;12.57;;;1.90;;
76640;SDS011;65538;50.798;6.064;2023-12-22T01:07:41;9.98;;;2.00;;
76640;SDS011;65538;50.798;6.064;2023-12-22T01:10:06;11.37;;;2.17;;
76640;SDS011;65538;50.798;6.064;2023-12-22T01:12:31;9.95;;;2.95;;
76640;SDS011;65538;50.798;6.064;2023-12-22T01:14:57;8.47;;;1.87;;
76640;SDS011;65538;50.798;6.064;2023-12-22T01:17:22;13.50;;;2.80;;
76640;SDS011;65538;50.798;6.064;2023-12-22T01:19:47;15.07;;;2.53;;
76640;SDS011;65538;50.798;6.064;2023-12-22T01:22:13;13.20;;;2.70;;
76640;SDS011;65538;50.798;6.064;2023-12-22T01:24:38;12.70;;;2.30;;
76640;SDS011;65538;50.798;6.064;2023-12-22T01:27:06;14.75;;;2.55;;
76640;SDS011;65538;50.798;6.064;2023-12-22T01:29:31;13.93;;;2.63;;
76640;SDS011;65538;50.798;6.064;2023-12-22T01:31:56;13.17;;;2.40;;
76640;SDS011;65538;50.798;6.064;2023-12-22T01:34:21;13.00;;;2.03;;
76640;SDS011;65538;50.798;6.064;2023-12-22T01:36:46;14.60;;;2.60;;
76640;SDS011;65538;50.798;6.064;2023-12-22T01:39:12;9.37;;;1.77;;
76640;SDS011;65538;50.798;6.064;2023-12-22T01:41:37;14.80;;;2.63;;
76640;SDS011;65538;50.798;6.064;2023-12-22T01:44:02;14.80;;;1.80;;
76640;SDS011;65538;50.798;6.064;2023-12-22T01:46:27;10.43;;;2.10;;
76640;SDS011;65538;50.798;6.064;2023-12-22T01:48:53;11.23;;;2.05;;
76640;SDS011;65538;50.798;6.064;2023-12-22T01:51:18;10.77;;;2.33;;
76640;SDS011;65538;50.798;6.064;2023-12-22T01:53:44;12.07;;;2.50;;
76640;SDS011;65538;50.798;6.064;2023-12-22T01:56:09;11.48;;;2.47;;
76640;SDS011;65538;50.798;6.064;2023-12-22T01:58:34;8.63;;;2.10;;
76640;SDS011;65538;50.798;6.064;2023-12-22T02:01:01;11.30;;;2.00;;
76640;SDS011;65538;50.798;6.064;2023-12-22T02:03:26;13.97;;;2.60;;
76640;SDS011;65538;50.798;6.064;2023-12-22T02:05:52;9.50;;;2.28;;
76640;SDS011;65538;50.798;6.064;2023-12-22T02:08:17;7.93;;;1.93;;
76640;SDS011;65538;50.798;6.064;2023-12-22T02:10:43;15.77;;;2.58;;
76640;SDS011;65538;50.798;6.064;2023-12-22T02:13:08;12.90;;;2.67;;
76640;SDS011;65538;50.798;6.064;2023-12-22T02:15:34;8.93;;;1.90;;
76640;SDS011;65538;50.798;6.064;2023-12-22T02:18:07;9.85;;;1.77;;
76640;SDS011;65538;50.798;6.064;2023-12-22T02:20:34;9.15;;;2.05;;
76640;SDS011;65538;50.798;6.064;2023-12-22T02:22:59;8.43;;;1.90;;
76640;SDS011;65538;50.798;6.064;2023-12-22T02:25:24;7.90;;;2.33;;
76640;SDS011;65538;50.798;6.064;2023-12-22T02:27:50;14.63;;;1.60;;
76640;SDS011;65538;50.798;6.064;2023-12-22T02:30:24;9.88;;;1.85;;
76640;SDS011;65538;50.798;6.064;2023-12-22T02:32:52;19.90;;;2.78;;
76640;SDS011;65538;50.798;6.064;2023-12-22T02:35:19;10.50;;;1.90;;
76640;SDS011;65538;50.798;6.064;2023-12-22T02:37:46;10.57;;;2.13;;
76640;SDS011;65538;50.798;6.064;2023-12-22T02:40:11;8.88;;;2.30;;
76640;SDS011;65538;50.798;6.064;2023-12-22T02:42:37;12.82;;;2.00;;
76640;SDS011;65538;50.798;6.064;2023-12-22T02:45:03;12.70;;;1.80;;
76640;SDS011;65538;50.798;6.064;2023-12-22T02:47:29;17.67;;;2.90;;
76640;SDS011;65538;50.798;6.064;2023-12-22T02:49:54;13.90;;;2.13;;
76640;SDS011;65538;50.798;6.064;2023-12-22T02:52:19;13.00;;;2.10;;
76640;SDS011;65538;50.798;6.064;2023-12-22T02:54:44;15.03;;;3.00;;
76640;SDS011;65538;50.798;6.064;2023-12-22T02:57:12;11.43;;;2.10;;
76640;SDS011;65538;50.798;6.064;2023-12-22T02:59:37;14.52;;;2.53;;
76640;SDS011;65538;50.798;6.064;2023-12-22T03:02:02;14.43;;;2.10;;
76640;SDS011;65538;50.798;6.064;2023-12-22T03:04:27;9.40;;;2.10;;
76640;SDS011;65538;50.798;6.064;2023-12-22T03:06:53;4.83;;;1.40;;
76640;SDS011;65538;50.798;6.064;2023-12-22T03:09:18;9.83;;;1.67;;
76640;SDS011;65538;50.798;6.064;2023-12-22T03:11:43;11.20;;;2.57;;
76640;SDS011;65538;50.798;6.064;2023-12-22T03:14:09;11.57;;;1.67;;
76640;SDS011;65538;50.798;6.064;2023-12-22T03:16:34;8.18;;;1.50;;
76640;SDS011;65538;50.798;6.064;2023-12-22T03:18:59;13.23;;;2.43;;
76640;SDS011;65538;50.798;6.064;2023-12-22T03:21:24;9.57;;;2.03;;
76640;SDS011;65538;50.798;6.064;2023-12-22T03:23:50;14.00;;;2.50;;
76640;SDS011;65538;50.798;6.064;2023-12-22T03:26:15;11.53;;;2.47;;
76640;SDS011;65538;50.798;6.064;2023-12-22T03:28:40;13.73;;;2.33;;
76640;SDS011;65538;50.798;6.064;2023-12-22T03:31:05;13.87;;;3.33;;
76640;SDS011;65538;50.798;6.064;2023-12-22T03:33:31;12.00;;;2.55;;
76640;SDS011;65538;50.798;6.064;2023-12-22T03:35:57;9.63;;;1.88;;
76640;SDS011;65538;50.798;6.064;2023-12-22T03:38:22;16.13;;;2.90;;
76640;SDS011;65538;50.798;6.064;2023-12-22T03:40:47;19.77;;;3.30;;
76640;SDS011;65538;50.798;6.064;2023-12-22T03:43:12;21.77;;;3.97;;
76640;SDS011;65538;50.798;6.064;2023-12-22T03:45:37;10.07;;;2.53;;
76640;SDS011;65538;50.798;6.064;2023-12-22T03:48:03;19.63;;;3.57;;
76640;SDS011;65538;50.798;6.064;2023-12-22T03:50:28;13.85;;;2.25;;
76640;SDS011;65538;50.798;6.064;2023-12-22T03:52:53;16.27;;;2.87;;
76640;SDS011;65538;50.798;6.064;2023-12-22T03:55:18;19.50;;;2.77;;
76640;SDS011;65538;50.798;6.064;2023-12-22T03:57:44;24.10;;;3.27;;
76640;SDS011;65538;50.798;6.064;2023-12-22T04:00:09;21.10;;;3.50;;
76640;SDS011;65538;50.798;6.064;2023-12-22T04:02:34;17.95;;;2.58;;
76640;SDS011;65538;50.798;6.064;2023-12-22T04:04:59;20.57;;;3.97;;
76640;SDS011;65538;50.798;6.064;2023-12-22T04:07:25;21.67;;;3.23;;
76640;SDS011;65538;50.798;6.064;2023-12-22T04:09:50;12.57;;;2.23;;
76640;SDS011;65538;50.798;6.064;2023-12-22T04:12:15;15.67;;;3.03;;
76640;SDS011;65538;50.798;6.064;2023-12-22T04:14:40;18.13;;;2.83;;
76640;SDS011;65538;50.798;6.064;2023-12-22T04:17:05;14.87;;;2.73;;
76640;SDS011;65538;50.798;6.064;2023-12-22T04:19:31;14.37;;;2.70;;
76640;SDS011;65538;50.798;6.064;2023-12-22T04:21:56;17.42;;;2.80;;
76640;SDS011;65538;50.798;6.064;2023-12-22T04:24:21;17.77;;;2.87;;
76640;SDS011;65538;50.798;6.064;2023-12-22T04:26:47;16.20;;;2.57;;
76640;SDS011;65538;50.798;6.064;2023-12-22T04:29:12;17.25;;;3.22;;
76640;SDS011;65538;50.798;6.064;2023-12-22T04:31:37;16.60;;;3.07;;
76640;SDS011;65538;50.798;6.064;2023-12-22T04:34:02;11.77;;;2.63;;
76640;SDS011;65538;50.798;6.064;2023-12-22T04:36:28;7.93;;;1.87;;
76640;SDS011;65538;50.798;6.064;2023-12-22T04:38:53;17.53;;;2.53;;
76640;SDS011;65538;50.798;6.064;2023-12-22T04:41:18;14.63;;;2.50;;
76640;SDS011;65538;50.798;6.064;2023-12-22T04:43:43;17.10;;;2.50;;
76640;SDS011;65538;50.798;6.064;2023-12-22T04:46:08;15.57;;;2.30;;
76640;SDS011;65538;50.798;6.064;2023-12-22T04:48:33;13.50;;;2.20;;
76640;SDS011;65538;50.798;6.064;2023-12-22T04:50:59;11.67;;;2.30;;
76640;SDS011;65538;50.798;6.064;2023-12-22T04:53:24;11.73;;;2.53;;
76640;SDS011;65538;50.798;6.064;2023-12-22T04:55:49;14.33;;;2.73;;
76640;SDS011;65538;50.798;6.064;2023-12-22T04:58:14;6.37;;;1.83;;
76640;SDS011;65538;50.798;6.064;2023-12-22T05:00:40;13.30;;;2.33;;
76640;SDS011;65538;50.798;6.064;2023-12-22T05:03:05;13.00;;;2.40;;
76640;SDS011;65538;50.798;6.064;2023-12-22T05:05:30;17.40;;;2.77;;
76640;SDS011;65538;50.798;6.064;2023-12-22T05:07:55;12.00;;;2.00;;
76640;SDS011;65538;50.798;6.064;2023-12-22T05:10:20;19.13;;;2.47;;
76640;SDS011;65538;50.798;6.064;2023-12-22T05:12:46;10.13;;;1.83;;
76640;SDS011;65538;50.798;6.064;2023-12-22T05:15:11;10.73;;;1.43;;
76640;SDS011;65538;50.798;6.064;2023-12-22T05:17:36;8.27;;;2.10;;
76640;SDS011;65538;50.798;6.064;2023-12-22T05:20:01;8.67;;;2.43;;
76640;SDS011;65538;50.798;6.064;2023-12-22T05:22:27;14.65;;;2.75;;
76640;SDS011;65538;50.798;6.064;2023-12-22T05:24:55;16.88;;;2.60;;
76640;SDS011;65538;50.798;6.064;2023-12-22T05:27:20;19.67;;;3.67;;
76640;SDS011;65538;50.798;6.064;2023-12-22T05:29:45;14.20;;;3.30;;
76640;SDS011;65538;50.798;6.064;2023-12-22T05:32:10;9.07;;;2.20;;
76640;SDS011;65538;50.798;6.064;2023-12-22T05:34:36;16.85;;;2.95;;
76640;SDS011;65538;50.798;6.064;2023-12-22T05:37:01;18.45;;;3.47;;
76640;SDS011;65538;50.798;6.064;2023-12-22T05:39:26;12.73;;;2.90;;
76640;SDS011;65538;50.798;6.064;2023-12-22T05:41:51;20.87;;;3.53;;
76640;SDS011;65538;50.798;6.064;2023-12-22T05:44:17;14.43;;;2.93;;
76640;SDS011;65538;50.798;6.064;2023-12-22T05:46:42;13.40;;;2.97;;
76640;SDS011;65538;50.798;6.064;2023-12-22T05:49:07;12.73;;;3.37;;
76640;SDS011;65538;50.798;6.064;2023-12-22T05:51:36;12.20;;;2.17;;
76640;SDS011;65538;50.798;6.064;2023-12-22T05:54:02;11.95;;;2.60;;
76640;SDS011;65538;50.798;6.064;2023-12-22T05:56:27;21.03;;;3.00;;
76640;SDS011;65538;50.798;6.064;2023-12-22T05:58:52;15.73;;;2.80;;
76640;SDS011;65538;50.798;6.064;2023-12-22T06:01:17;17.07;;;3.10;;
76640;SDS011;65538;50.798;6.064;2023-12-22T06:03:43;19.63;;;3.70;;
76640;SDS011;65538;50.798;6.064;2023-12-22T06:06:09;26.08;;;4.13;;
76640;SDS011;65538;50.798;6.064;2023-12-22T06:08:34;15.37;;;2.43;;
76640;SDS011;65538;50.798;6.064;2023-12-22T06:10:59;15.93;;;2.30;;
76640;SDS011;65538;50.798;6.064;2023-12-22T06:13:24;22.90;;;3.90;;
76640;SDS011;65538;50.798;6.064;2023-12-22T06:15:49;17.40;;;2.90;;
76640;SDS011;65538;50.798;6.064;2023-12-22T06:18:15;22.27;;;3.43;;
76640;SDS011;65538;50.798;6.064;2023-12-22T06:20:40;17.40;;;3.07;;
76640;SDS011;65538;50.798;6.064;2023-12-22T06:23:05;18.57;;;3.53;;
76640;SDS011;65538;50.798;6.064;2023-12-22T06:25:30;14.47;;;2.43;;
76640;SDS011;65538;50.798;6.064;2023-12-22T06:27:55;16.07;;;3.30;;
76640;SDS011;65538;50.798;6.064;2023-12-22T06:30:20;20.77;;;4.00;;
76640;SDS011;65538;50.798;6.064;2023-12-22T06:32:46;24.90;;;4.27;;
76640;SDS011;65538;50.798;6.064;2023-12-22T06:35:11;22.27;;;4.77;;
76640;SDS011;65538;50.798;6.064;2023-12-22T06:37:36;24.73;;;3.90;;
76640;SDS011;65538;50.798;6.064;2023-12-22T06:40:01;24.40;;;4.07;;
76640;SDS011;65538;50.798;6.064;2023-12-22T06:42:27;25.00;;;4.63;;
76640;SDS011;65538;50.798;6.064;2023-12-22T06:44:52;25.37;;;4.07;;
76640;SDS011;65538;50.798;6.064;2023-12-22T06:47:17;26.10;;;3.87;;
76640;SDS011;65538;50.798;6.064;2023-12-22T06:49:42;23.10;;;4.03;;
76640;SDS011;65538;50.798;6.064;2023-12-22T06:52:09;25.98;;;4.70;;
76640;SDS011;65538;50.798;6.064;2023-12-22T06:54:34;29.55;;;4.35;;
76640;SDS011;65538;50.798;6.064;2023-12-22T06:57:00;30.77;;;4.90;;
76640;SDS011;65538;50.798;6.064;2023-12-22T06:59:25;23.52;;;3.78;;
76640;SDS011;65538;50.798;6.064;2023-12-22T07:01:50;27.53;;;5.07;;
76640;SDS011;65538;50.798;6.064;2023-12-22T07:04:15;27.07;;;4.20;;
76640;SDS011;65538;50.798;6.064;2023-12-22T07:06:41;22.03;;;3.37;;
76640;SDS011;65538;50.798;6.064;2023-12-22T07:11:48;17.08;;;4.13;;
76640;SDS011;65538;50.798;6.064;2023-12-22T07:14:14;29.77;;;5.50;;
76640;SDS011;65538;50.798;6.064;2023-12-22T07:16:40;35.20;;;5.35;;
76640;SDS011;65538;50.798;6.064;2023-12-22T07:19:05;26.97;;;4.90;;
76640;SDS011;65538;50.798;6.064;2023-12-22T07:21:30;19.53;;;2.67;;
76640;SDS011;65538;50.798;6.064;2023-12-22T07:23:56;29.48;;;4.72;;
76640;SDS011;65538;50.798;6.064;2023-12-22T07:26:23;23.27;;;3.78;;
76640;SDS011;65538;50.798;6.064;2023-12-22T07:28:49;23.75;;;4.35;;
76640;SDS011;65538;50.798;6.064;2023-12-22T07:31:14;25.83;;;4.77;;
76640;SDS011;65538;50.798;6.064;2023-12-22T07:33:39;26.23;;;4.07;;
76640;SDS011;65538;50.798;6.064;2023-12-22T07:36:05;26.10;;;4.63;;
76640;SDS011;65538;50.798;6.064;2023-12-22T07:38:31;22.10;;;3.20;;
76640;SDS011;65538;50.798;6.064;2023-12-22T07:40:56;30.50;;;4.17;;
76640;SDS011;65538;50.798;6.064;2023-12-22T07:43:21;38.80;;;7.00;;
76640;SDS011;65538;50.798;6.064;2023-12-22T07:45:47;22.03;;;3.47;;
76640;SDS011;65538;50.798;6.064;2023-12-22T07:48:12;33.08;;;4.53;;
76640;SDS011;65538;50.798;6.064;2023-12-22T07:50:38;21.65;;;3.38;;
76640;SDS011;65538;50.798;6.064;2023-12-22T07:53:04;30.85;;;4.15;;
76640;SDS011;65538;50.798;6.064;2023-12-22T07:55:29;25.77;;;4.30;;
76640;SDS011;65538;50.798;6.064;2023-12-22T07:57:54;25.87;;;4.07;;
76640;SDS011;65538;50.798;6.064;2023-12-22T08:00:19;31.37;;;4.13;;
76640;SDS011;65538;50.798;6.064;2023-12-22T08:02:44;29.40;;;5.87;;
76640;SDS011;65538;50.798;6.064;2023-12-22T08:05:10;24.33;;;4.20;;
76640;SDS011;65538;50.798;6.064;2023-12-22T08:07:35;30.93;;;4.13;;
76640;SDS011;65538;50.798;6.064;2023-12-22T08:10:00;22.20;;;4.03;;
76640;SDS011;65538;50.798;6.064;2023-12-22T08:12:27;20.80;;;3.70;;
76640;SDS011;65538;50.798;6.064;2023-12-22T08:14:53;36.08;;;4.05;;
76640;SDS011;65538;50.798;6.064;2023-12-22T08:17:18;23.97;;;4.03;;
76640;SDS011;65538;50.798;6.064;2023-12-22T08:19:43;22.83;;;3.67;;
76640;SDS011;65538;50.798;6.064;2023-12-22T08:22:11;26.27;;;5.17;;
76640;SDS011;65538;50.798;6.064;2023-12-22T08:24:39;16.27;;;2.80;;
76640;SDS011;65538;50.798;6.064;2023-12-22T08:27:05;21.03;;;4.07;;
76640;SDS011;65538;50.798;6.064;2023-12-22T08:29:32;17.70;;;3.50;;
76640;SDS011;65538;50.798;6.064;2023-12-22T08:31:57;18.90;;;3.47;;
76640;SDS011;65538;50.798;6.064;2023-12-22T08:34:22;17.97;;;3.20;;
76640;SDS011;65538;50.798;6.064;2023-12-22T08:36:47;16.27;;;3.37;;
76640;SDS011;65538;50.798;6.064;2023-12-22T08:39:12;17.43;;;3.53;;
76640;SDS011;65538;50.798;6.064;2023-12-22T08:41:38;11.40;;;3.27;;
76640;SDS011;65538;50.798;6.064;2023-12-22T08:44:04;16.37;;;2.77;;
76640;SDS011;65538;50.798;6.064;2023-12-22T08:46:29;15.13;;;3.88;;
76640;SDS011;65538;50.798;6.064;2023-12-22T08:48:55;14.15;;;2.38;;
76640;SDS011;65538;50.798;6.064;2023-12-22T08:51:21;12.10;;;2.43;;
76640;SDS011;65538;50.798;6.064;2023-12-22T08:53:46;19.57;;;4.47;;
76640;SDS011;65538;50.798;6.064;2023-12-22T08:56:11;14.90;;;2.83;;
76640;SDS011;65538;50.798;6.064;2023-12-22T08:58:36;17.77;;;3.20;;
76640;SDS011;65538;50.798;6.064;2023-12-22T09:01:01;18.23;;;4.20;;
76640;SDS011;65538;50.798;6.064;2023-12-22T09:03:27;15.20;;;2.72;;
76640;SDS011;65538;50.798;6.064;2023-12-22T09:05:53;13.27;;;3.20;;
76640;SDS011;65538;50.798;6.064;2023-12-22T09:08:18;12.67;;;3.00;;
76640;SDS011;65538;50.798;6.064;2023-12-22T09:10:43;17.27;;;4.30;;
76640;SDS011;65538;50.798;6.064;2023-12-22T09:13:10;18.10;;;4.13;;
76640;SDS011;65538;50.798;6.064;2023-12-22T09:15:36;18.67;;;3.42;;
76640;SDS011;65538;50.798;6.064;2023-12-22T09:18:01;10.10;;;2.20;;
76640;SDS011;65538;50.798;6.064;2023-12-22T09:20:27;6.80;;;2.35;;
76640;SDS011;65538;50.798;6.064;2023-12-22T09:22:55;15.93;;;3.97;;
76640;SDS011;65538;50.798;6.064;2023-12-22T09:25:20;13.53;;;3.57;;
76640;SDS011;65538;50.798;6.064;2023-12-22T09:27:45;13.27;;;3.60;;
76640;SDS011;65538;50.798;6.064;2023-12-22T09:30:10;12.67;;;3.30;;
76640;SDS011;65538;50.798;6.064;2023-12-22T09:32:36;14.40;;;4.10;;
76640;SDS011;65538;50.798;6.064;2023-12-22T09:35:01;11.30;;;3.17;;
76640;SDS011;65538;50.798;6.064;2023-12-22T09:37:26;9.63;;;2.80;;
76640;SDS011;65538;50.798;6.064;2023-12-22T09:39:51;9.90;;;2.30;;
76640;SDS011;65538;50.798;6.064;2023-12-22T09:42:17;18.90;;;3.47;;
76640;SDS011;65538;50.798;6.064;2023-12-22T09:44:42;10.07;;;2.70;;
76640;SDS011;65538;50.798;6.064;2023-12-22T09:47:07;9.57;;;2.67;;
76640;SDS011;65538;50.798;6.064;2023-12-22T09:49:34;11.07;;;3.75;;
76640;SDS011;65538;50.798;6.064;2023-12-22T09:52:00;10.52;;;2.22;;
76640;SDS011;65538;50.798;6.064;2023-12-22T09:54:27;12.60;;;3.38;;
76640;SDS011;65538;50.798;6.064;2023-12-22T09:56:52;7.47;;;2.77;;
76640;SDS011;65538;50.798;6.064;2023-12-22T09:59:18;11.35;;;2.75;;
76640;SDS011;65538;50.798;6.064;2023-12-22T10:01:44;10.40;;;2.50;;
76640;SDS011;65538;50.798;6.064;2023-12-22T10:04:13;6.00;;;2.38;;
76640;SDS011;65538;50.798;6.064;2023-12-22T10:06:38;9.27;;;3.63;;
76640;SDS011;65538;50.798;6.064;2023-12-22T10:09:04;11.25;;;3.30;;
76640;SDS011;65538;50.798;6.064;2023-12-22T10:11:32;12.05;;;4.00;;
76640;SDS011;65538;50.798;6.064;2023-12-22T10:13:57;7.82;;;3.22;;
76640;SDS011;65538;50.798;6.064;2023-12-22T10:16:24;8.43;;;2.92;;
76640;SDS011;65538;50.798;6.064;2023-12-22T10:18:49;10.87;;;4.00;;
76640;SDS011;65538;50.798;6.064;2023-12-22T10:21:14;5.43;;;2.80;;
76640;SDS011;65538;50.798;6.064;2023-12-22T10:23:40;8.80;;;3.05;;
76640;SDS011;65538;50.798;6.064;2023-12-22T10:26:05;8.10;;;3.70;;
76640;SDS011;65538;50.798;6.064;2023-12-22T10:28:30;7.57;;;3.17;;
76640;SDS011;65538;50.798;6.064;2023-12-22T10:30:55;5.83;;;2.50;;
76640;SDS011;65538;50.798;6.064;2023-12-22T10:33:22;7.63;;;3.55;;
76640;SDS011;65538;50.798;6.064;2023-12-22T10:35:47;9.30;;;3.70;;
76640;SDS011;65538;50.798;6.064;2023-12-22T10:38:17;7.68;;;3.28;;
76640;SDS011;65538;50.798;6.064;2023-12-22T10:40:42;9.52;;;3.05;;
76640;SDS011;65538;50.798;6.064;2023-12-22T10:43:07;9.90;;;3.37;;
76640;SDS011;65538;50.798;6.064;2023-12-22T10:45:33;6.27;;;2.90;;
76640;SDS011;65538;50.798;6.064;2023-12-22T10:47:58;6.30;;;3.47;;
76640;SDS011;65538;50.798;6.064;2023-12-22T10:50:24;8.88;;;2.92;;
76640;SDS011;65538;50.798;6.064;2023-12-22T10:52:50;6.25;;;3.20;;
76640;SDS011;65538;50.798;6.064;2023-12-22T10:55:16;6.45;;;3.15;;
76640;SDS011;65538;50.798;6.064;2023-12-22T10:57:41;7.88;;;3.58;;
76640;SDS011;65538;50.798;6.064;2023-12-22T11:00:08;8.30;;;3.20;;
76640;SDS011;65538;50.798;6.064;2023-12-22T11:02:35;6.63;;;3.58;;
76640;SDS011;65538;50.798;6.064;2023-12-22T11:05:01;9.02;;;3.45;;
76640;SDS011;65538;50.798;6.064;2023-12-22T11:07:27;11.35;;;4.53;;
76640;SDS011;65538;50.798;6.064;2023-12-22T11:09:53;3.80;;;2.35;;
76640;SDS011;65538;50.798;6.064;2023-12-22T11:12:20;6.65;;;2.38;;
76640;SDS011;65538;50.798;6.064;2023-12-22T11:14:46;4.07;;;2.20;;
76640;SDS011;65538;50.798;6.064;2023-12-22T11:17:16;4.30;;;2.03;;
76640;SDS011;65538;50.798;6.064;2023-12-22T11:19:42;5.93;;;2.10;;
76640;SDS011;65538;50.798;6.064;2023-12-22T11:22:08;3.60;;;1.83;;
76640;SDS011;65538;50.798;6.064;2023-12-22T11:24:34;3.63;;;2.00;;
76640;SDS011;65538;50.798;6.064;2023-12-22T11:27:00;7.55;;;2.58;;
76640;SDS011;65538;50.798;6.064;2023-12-22T11:29:26;6.90;;;2.20;;
76640;SDS011;65538;50.798;6.064;2023-12-22T11:31:52;11.57;;;2.92;;
76640;SDS011;65538;50.798;6.064;2023-12-22T11:34:20;10.13;;;2.95;;
76640;SDS011;65538;50.798;6.064;2023-12-22T11:36:46;7.28;;;2.55;;
76640;SDS011;65538;50.798;6.064;2023-12-22T11:39:12;6.45;;;2.83;;
76640;SDS011;65538;50.798;6.064;2023-12-22T11:41:37;9.30;;;3.67;;
76640;SDS011;65538;50.798;6.064;2023-12-22T11:44:04;7.38;;;3.10;;
76640;SDS011;65538;50.798;6.064;2023-12-22T11:46:30;7.10;;;2.70;;
76640;SDS011;65538;50.798;6.064;2023-12-22T11:48:55;5.53;;;2.80;;
76640;SDS011;65538;50.798;6.064;2023-12-22T11:51:21;6.32;;;2.88;;
76640;SDS011;65538;50.798;6.064;2023-12-22T11:53:47;5.13;;;2.58;;
76640;SDS011;65538;50.798;6.064;2023-12-22T11:56:12;16.67;;;3.70;;
76640;SDS011;65538;50.798;6.064;2023-12-22T11:58:47;5.10;;;2.55;;
76640;SDS011;65538;50.798;6.064;2023-12-22T12:01:24;4.35;;;2.20;;
76640;SDS011;65538;50.798;6.064;2023-12-22T12:03:50;7.32;;;3.13;;
76640;SDS011;65538;50.798;6.064;2023-12-22T12:08:42;6.20;;;2.80;;
76640;SDS011;65538;50.798;6.064;2023-12-22T12:11:08;7.68;;;2.72;;
76640;SDS011;65538;50.798;6.064;2023-12-22T12:13:33;6.47;;;2.95;;
76640;SDS011;65538;50.798;6.064;2023-12-22T12:15:59;7.80;;;2.83;;
76640;SDS011;65538;50.798;6.064;2023-12-22T12:18:29;8.27;;;2.90;;
76640;SDS011;65538;50.798;6.064;2023-12-22T12:20:54;6.35;;;2.85;;
76640;SDS011;65538;50.798;6.064;2023-12-22T12:23:20;5.85;;;2.70;;
76640;SDS011;65538;50.798;6.064;2023-12-22T12:25:45;5.40;;;2.70;;
76640;SDS011;65538;50.798;6.064;2023-12-22T12:28:12;6.43;;;3.20;;
76640;SDS011;65538;50.798;6.064;2023-12-22T12:30:38;5.10;;;2.70;;
76640;SDS011;65538;50.798;6.064;2023-12-22T12:33:07;7.97;;;3.42;;
76640;SDS011;65538;50.798;6.064;2023-12-22T12:35:33;8.15;;;3.00;;
76640;SDS011;65538;50.798;6.064;2023-12-22T12:37:59;5.80;;;2.87;;
76640;SDS011;65538;50.798;6.064;2023-12-22T12:40:24;4.25;;;2.67;;
76640;SDS011;65538;50.798;6.064;2023-12-22T12:42:50;7.85;;;3.40;;
76640;SDS011;65538;50.798;6.064;2023-12-22T12:45:15;9.15;;;2.75;;
76640;SDS011;65538;50.798;6.064;2023-12-22T12:47:54;4.05;;;2.30;;
76640;SDS011;65538;50.798;6.064;2023-12-22T12:50:22;5.40;;;2.47;;
76640;SDS011;65538;50.798;6.064;2023-12-22T12:52:54;8.15;;;2.30;;
76640;SDS011;65538;50.798;6.064;2023-12-22T12:55:23;6.35;;;2.40;;
76640;SDS011;65538;50.798;6.064;2023-12-22T12:57:48;9.30;;;2.17;;
76640;SDS011;65538;50.798;6.064;2023-12-22T13:00:14;5.50;;;2.30;;
76640;SDS011;65538;50.798;6.064;2023-12-22T13:02:40;7.32;;;2.72;;
76640;SDS011;65538;50.798;6.064;2023-12-22T13:05:05;4.57;;;2.27;;
76640;SDS011;65538;50.798;6.064;2023-12-22T13:07:31;5.75;;;2.33;;
76640;SDS011;65538;50.798;6.064;2023-12-22T13:09:56;6.57;;;2.10;;
76640;SDS011;65538;50.798;6.064;2023-12-22T13:12:22;5.97;;;2.13;;
76640;SDS011;65538;50.798;6.064;2023-12-22T13:14:48;4.30;;;2.30;;
76640;SDS011;65538;50.798;6.064;2023-12-22T13:17:13;5.88;;;1.80;;
76640;SDS011;65538;50.798;6.064;2023-12-22T13:19:38;7.23;;;2.00;;
76640;SDS011;65538;50.798;6.064;2023-12-22T13:22:04;8.82;;;2.03;;
76640;SDS011;65538;50.798;6.064;2023-12-22T13:24:29;5.60;;;2.00;;
76640;SDS011;65538;50.798;6.064;2023-12-22T13:27:01;8.23;;;2.47;;
76640;SDS011;65538;50.798;6.064;2023-12-22T13:29:26;7.82;;;2.47;;
76640;SDS011;65538;50.798;6.064;2023-12-22T13:31:53;8.05;;;2.55;;
76640;SDS011;65538;50.798;6.064;2023-12-22T13:34:19;6.25;;;1.83;;
76640;SDS011;65538;50.798;6.064;2023-12-22T13:36:44;5.47;;;2.03;;
76640;SDS011;65538;50.798;6.064;2023-12-22T13:39:09;7.57;;;1.87;;
76640;SDS011;65538;50.798;6.064;2023-12-22T13:41:40;6.95;;;1.98;;
76640;SDS011;65538;50.798;6.064;2023-12-22T13:44:07;4.88;;;2.05;;
76640;SDS011;65538;50.798;6.064;2023-12-22T13:46:32;9.02;;;2.30;;
76640;SDS011;65538;50.798;6.064;2023-12-22T13:49:00;5.50;;;1.60;;
76640;SDS011;65538;50.798;6.064;2023-12-22T13:51:25;5.78;;;2.53;;
76640;SDS011;65538;50.798;6.064;2023-12-22T13:53:50;6.50;;;2.10;;
76640;SDS011;65538;50.798;6.064;2023-12-22T13:56:16;4.80;;;1.50;;
76640;SDS011;65538;50.798;6.064;2023-12-22T13:58:47;5.60;;;2.58;;
76640;SDS011;65538;50.798;6.064;2023-12-22T14:01:16;5.88;;;2.13;;
76640;SDS011;65538;50.798;6.064;2023-12-22T14:03:42;6.93;;;2.15;;
76640;SDS011;65538;50.798;6.064;2023-12-22T14:06:08;6.90;;;1.80;;
76640;SDS011;65538;50.798;6.064;2023-12-22T14:08:34;8.57;;;1.90;;
76640;SDS011;65538;50.798;6.064;2023-12-22T14:10:59;8.10;;;2.47;;
76640;SDS011;65538;50.798;6.064;2023-12-22T14:13:25;6.82;;;2.08;;
76640;SDS011;65538;50.798;6.064;2023-12-22T14:15:52;6.53;;;2.10;;
76640;SDS011;65538;50.798;6.064;2023-12-22T14:18:17;5.03;;;2.07;;
76640;SDS011;65538;50.798;6.064;2023-12-22T14:20:42;7.70;;;1.93;;
76640;SDS011;65538;50.798;6.064;2023-12-22T14:23:08;7.80;;;2.10;;
76640;SDS011;65538;50.798;6.064;2023-12-22T14:25:36;6.45;;;2.00;;
76640;SDS011;65538;50.798;6.064;2023-12-22T14:28:02;5.60;;;1.73;;
76640;SDS011;65538;50.798;6.064;2023-12-22T14:30:27;6.43;;;2.43;;
76640;SDS011;65538;50.798;6.064;2023-12-22T14:32:52;4.57;;;2.07;;
76640;SDS011;65538;50.798;6.064;2023-12-22T14:35:19;7.03;;;2.65;;
76640;SDS011;65538;50.798;6.064;2023-12-22T14:37:44;7.60;;;3.40;;